LAZY411 LOWI-EHAM
Flight info
| Callsign | LAZY411 |
|---|---|
| Flight time | 1h 17m |
| Altitude | 38000 |
| Route | MOGTI P66 DITBA DCT ADEMI Z850 HMM T281 NORKU |
| Aircraft | B738/M-SDGIJ1LRWY/SB1 |
Departure
| Time | 2026-05-06 10:05 |
|---|---|
| Airport | Innsbruck Airport (LOWI) |
Arrival
| Time | 2026-05-06 11:23 |
|---|---|
| Airport | Amsterdam Airport Schiphol (EHAM) |
| Time | Latitude | Longitude | Altitude | Speed | Heading |
|---|---|---|---|---|---|
| 2026-05-06 09:57 | 47.25860 | 11.34887 | 1913 ft | 0 kts | 261° |
| 2026-05-06 09:58 | 47.25860 | 11.34884 | 1913 ft | 1 kts | 261° |
| 2026-05-06 09:58 | 47.25857 | 11.34854 | 1914 ft | 4 kts | 261° |
| 2026-05-06 09:59 | 47.25850 | 11.34791 | 1914 ft | 8 kts | 260° |
| 2026-05-06 09:59 | 47.25837 | 11.34678 | 1914 ft | 13 kts | 260° |
| 2026-05-06 09:59 | 47.25819 | 11.34524 | 1917 ft | 16 kts | 260° |
| 2026-05-06 09:59 | 47.25798 | 11.34332 | 1918 ft | 20 kts | 262° |
| 2026-05-06 10:00 | 47.25778 | 11.34146 | 1921 ft | 17 kts | 259° |
| 2026-05-06 10:00 | 47.25777 | 11.33978 | 1925 ft | 14 kts | 286° |
| 2026-05-06 10:00 | 47.25816 | 11.33861 | 1929 ft | 11 kts | 303° |
| 2026-05-06 10:00 | 47.25836 | 11.33818 | 1930 ft | 0 kts | 304° |
| 2026-05-06 10:03 | 47.25851 | 11.33786 | 1931 ft | 7 kts | 306° |
| 2026-05-06 10:03 | 47.25901 | 11.33690 | 1934 ft | 17 kts | 307° |
| 2026-05-06 10:03 | 47.25921 | 11.33476 | 1940 ft | 22 kts | 259° |
| 2026-05-06 10:04 | 47.25896 | 11.33264 | 1938 ft | 8 kts | 260° |
| 2026-05-06 10:04 | 47.25860 | 11.33192 | 1937 ft | 9 kts | 211° |
| 2026-05-06 10:04 | 47.25850 | 11.33119 | 1935 ft | 7 kts | 319° |
| 2026-05-06 10:04 | 47.25885 | 11.33145 | 1936 ft | 5 kts | 65° |
| 2026-05-06 10:05 | 47.25894 | 11.33198 | 1937 ft | 8 kts | 78° |
| 2026-05-06 10:05 | 47.25925 | 11.33500 | 1940 ft | 63 kts | 82° |
| 2026-05-06 10:05 | 47.26041 | 11.34563 | 1917 ft | 143 kts | 82° |
| 2026-05-06 10:05 | 47.26244 | 11.36098 | 2547 ft | 156 kts | 81° |
| 2026-05-06 10:06 | 47.26494 | 11.37608 | 3436 ft | 155 kts | 79° |
| 2026-05-06 10:06 | 47.26713 | 11.39100 | 4159 ft | 153 kts | 81° |
| 2026-05-06 10:06 | 47.26935 | 11.40650 | 4745 ft | 158 kts | 80° |
| 2026-05-06 10:06 | 47.27110 | 11.42251 | 5338 ft | 161 kts | 94° |
| 2026-05-06 10:07 | 47.26701 | 11.43728 | 5911 ft | 163 kts | 135° |
| 2026-05-06 10:07 | 47.25692 | 11.44436 | 6484 ft | 169 kts | 167° |
| 2026-05-06 10:07 | 47.24517 | 11.44421 | 7032 ft | 178 kts | 197° |
| 2026-05-06 10:07 | 47.23528 | 11.43331 | 7647 ft | 185 kts | 231° |
| 2026-05-06 10:08 | 47.22846 | 11.41727 | 8328 ft | 187 kts | 243° |
| 2026-05-06 10:08 | 47.22659 | 11.39821 | 8925 ft | 197 kts | 276° |
| 2026-05-06 10:08 | 47.22995 | 11.37897 | 9577 ft | 198 kts | 285° |
| 2026-05-06 10:08 | 47.23561 | 11.36052 | 10202 ft | 201 kts | 295° |
| 2026-05-06 10:09 | 47.24226 | 11.34279 | 10824 ft | 202 kts | 296° |
| 2026-05-06 10:09 | 47.24960 | 11.32511 | 11423 ft | 205 kts | 300° |
| 2026-05-06 10:09 | 47.25831 | 11.30782 | 11880 ft | 216 kts | 305° |
| 2026-05-06 10:09 | 47.26791 | 11.29037 | 12298 ft | 228 kts | 304° |
| 2026-05-06 10:10 | 47.27794 | 11.27163 | 12691 ft | 241 kts | 304° |
| 2026-05-06 10:10 | 47.28856 | 11.25112 | 13035 ft | 262 kts | 303° |
| 2026-05-06 10:10 | 47.29996 | 11.22890 | 13515 ft | 278 kts | 303° |
| 2026-05-06 10:10 | 47.31169 | 11.20604 | 14036 ft | 292 kts | 303° |
| 2026-05-06 10:11 | 47.32427 | 11.18157 | 14535 ft | 306 kts | 303° |
| 2026-05-06 10:11 | 47.33734 | 11.15614 | 15014 ft | 322 kts | 303° |
| 2026-05-06 10:11 | 47.35120 | 11.12913 | 15492 ft | 336 kts | 303° |
| 2026-05-06 10:11 | 47.36560 | 11.10107 | 15931 ft | 352 kts | 302° |
| 2026-05-06 10:12 | 47.38044 | 11.07208 | 16391 ft | 366 kts | 302° |
| 2026-05-06 10:12 | 47.39623 | 11.04124 | 16768 ft | 380 kts | 302° |
| 2026-05-06 10:12 | 47.41205 | 11.01033 | 17000 ft | 384 kts | 303° |
| 2026-05-06 10:12 | 47.42824 | 10.97876 | 17247 ft | 384 kts | 303° |
| 2026-05-06 10:13 | 47.44431 | 10.94739 | 17462 ft | 386 kts | 302° |
| 2026-05-06 10:13 | 47.46044 | 10.91584 | 17686 ft | 388 kts | 302° |
| 2026-05-06 10:13 | 47.47666 | 10.88406 | 17906 ft | 389 kts | 302° |
| 2026-05-06 10:13 | 47.49307 | 10.85181 | 18128 ft | 391 kts | 302° |
| 2026-05-06 10:14 | 47.50919 | 10.82008 | 18342 ft | 391 kts | 302° |
| 2026-05-06 10:14 | 47.52559 | 10.78774 | 18593 ft | 392 kts | 302° |
| 2026-05-06 10:14 | 47.54194 | 10.75549 | 18821 ft | 392 kts | 302° |
| 2026-05-06 10:14 | 47.55814 | 10.72348 | 19059 ft | 395 kts | 302° |
| 2026-05-06 10:15 | 47.57465 | 10.69085 | 19293 ft | 397 kts | 302° |
| 2026-05-06 10:15 | 47.59106 | 10.65840 | 19539 ft | 396 kts | 302° |
| 2026-05-06 10:15 | 47.60773 | 10.62538 | 19771 ft | 398 kts | 302° |
| 2026-05-06 10:15 | 47.62422 | 10.59262 | 20002 ft | 401 kts | 302° |
| 2026-05-06 10:16 | 47.64070 | 10.55984 | 20237 ft | 400 kts | 302° |
| 2026-05-06 10:16 | 47.65744 | 10.52653 | 20478 ft | 402 kts | 302° |
| 2026-05-06 10:16 | 47.67420 | 10.49310 | 20723 ft | 404 kts | 302° |
| 2026-05-06 10:16 | 47.69102 | 10.45958 | 20957 ft | 405 kts | 302° |
| 2026-05-06 10:17 | 47.70768 | 10.42632 | 21201 ft | 407 kts | 302° |
| 2026-05-06 10:17 | 47.72502 | 10.39272 | 21440 ft | 410 kts | 304° |
| 2026-05-06 10:17 | 47.74376 | 10.36106 | 21676 ft | 415 kts | 311° |
| 2026-05-06 10:17 | 47.76568 | 10.33248 | 21926 ft | 418 kts | 318° |
| 2026-05-06 10:18 | 47.78951 | 10.30713 | 22151 ft | 423 kts | 322° |
| 2026-05-06 10:18 | 47.81412 | 10.28361 | 22410 ft | 425 kts | 324° |
| 2026-05-06 10:18 | 47.83957 | 10.26045 | 22659 ft | 427 kts | 325° |
| 2026-05-06 10:18 | 47.86485 | 10.23780 | 22911 ft | 428 kts | 325° |
| 2026-05-06 10:19 | 47.89023 | 10.21503 | 23188 ft | 428 kts | 325° |
| 2026-05-06 10:19 | 47.91569 | 10.19204 | 23463 ft | 432 kts | 325° |
| 2026-05-06 10:19 | 47.94151 | 10.16855 | 23732 ft | 432 kts | 325° |
| 2026-05-06 10:19 | 47.96695 | 10.14523 | 24000 ft | 434 kts | 325° |
| 2026-05-06 10:20 | 47.99285 | 10.12137 | 24274 ft | 436 kts | 324° |
| 2026-05-06 10:20 | 48.01825 | 10.09787 | 24541 ft | 436 kts | 324° |
| 2026-05-06 10:20 | 48.04409 | 10.07387 | 24820 ft | 441 kts | 324° |
| 2026-05-06 10:20 | 48.07016 | 10.04957 | 25306 ft | 447 kts | 324° |
| 2026-05-06 10:21 | 48.09685 | 10.02466 | 25862 ft | 451 kts | 324° |
| 2026-05-06 10:21 | 48.12336 | 9.99990 | 26397 ft | 454 kts | 323° |
| 2026-05-06 10:21 | 48.15008 | 9.97488 | 26852 ft | 459 kts | 323° |
| 2026-05-06 10:21 | 48.17722 | 9.94946 | 27385 ft | 462 kts | 322° |
| 2026-05-06 10:22 | 48.20456 | 9.92378 | 27817 ft | 468 kts | 322° |
| 2026-05-06 10:22 | 48.23230 | 9.89785 | 28361 ft | 470 kts | 323° |
| 2026-05-06 10:22 | 48.26024 | 9.87256 | 28770 ft | 476 kts | 324° |
| 2026-05-06 10:22 | 48.28892 | 9.84729 | 29263 ft | 479 kts | 324° |
| 2026-05-06 10:23 | 48.31756 | 9.82234 | 29664 ft | 484 kts | 324° |
| 2026-05-06 10:23 | 48.34688 | 9.79690 | 30188 ft | 485 kts | 324° |
| 2026-05-06 10:23 | 48.37613 | 9.77147 | 30514 ft | 491 kts | 324° |
| 2026-05-06 10:23 | 48.40543 | 9.74589 | 30896 ft | 494 kts | 324° |
| 2026-05-06 10:24 | 48.43495 | 9.72007 | 31511 ft | 491 kts | 324° |
| 2026-05-06 10:24 | 48.46426 | 9.69439 | 32157 ft | 486 kts | 324° |
| 2026-05-06 10:24 | 48.49327 | 9.66921 | 32795 ft | 482 kts | 325° |
| 2026-05-06 10:24 | 48.52291 | 9.64626 | 33323 ft | 483 kts | 329° |
| 2026-05-06 10:25 | 48.55342 | 9.62598 | 33821 ft | 482 kts | 332° |
| 2026-05-06 10:25 | 48.58450 | 9.60733 | 34341 ft | 480 kts | 334° |
| 2026-05-06 10:25 | 48.61556 | 9.58982 | 34754 ft | 478 kts | 335° |
| 2026-05-06 10:25 | 48.64654 | 9.57283 | 35033 ft | 477 kts | 335° |
| 2026-05-06 10:26 | 48.67797 | 9.55574 | 35324 ft | 477 kts | 335° |
| 2026-05-06 10:26 | 48.70869 | 9.53899 | 35586 ft | 477 kts | 335° |
| 2026-05-06 10:26 | 48.73989 | 9.52186 | 35856 ft | 477 kts | 336° |
| 2026-05-06 10:26 | 48.77081 | 9.50481 | 36187 ft | 477 kts | 336° |
| 2026-05-06 10:27 | 48.80106 | 9.48803 | 36522 ft | 477 kts | 336° |
| 2026-05-06 10:27 | 48.83165 | 9.47098 | 36909 ft | 474 kts | 336° |
| 2026-05-06 10:27 | 48.86249 | 9.45372 | 37208 ft | 475 kts | 336° |
| 2026-05-06 10:27 | 48.89336 | 9.43638 | 37593 ft | 476 kts | 336° |
| 2026-05-06 10:28 | 48.92428 | 9.41894 | 37767 ft | 478 kts | 336° |
| 2026-05-06 10:28 | 48.95535 | 9.40138 | 37784 ft | 482 kts | 336° |
| 2026-05-06 10:28 | 49.01809 | 9.36582 | 37783 ft | 484 kts | 336° |
| 2026-05-06 10:29 | 49.08099 | 9.33009 | 37784 ft | 485 kts | 335° |
| 2026-05-06 10:29 | 49.14405 | 9.29417 | 37781 ft | 486 kts | 335° |
| 2026-05-06 10:30 | 49.20676 | 9.25835 | 37782 ft | 486 kts | 335° |
| 2026-05-06 10:30 | 49.26965 | 9.22236 | 37773 ft | 485 kts | 335° |
| 2026-05-06 10:31 | 49.33250 | 9.18628 | 37775 ft | 485 kts | 336° |
| 2026-05-06 10:31 | 49.39550 | 9.15000 | 37780 ft | 486 kts | 336° |
| 2026-05-06 10:32 | 49.45800 | 9.11393 | 37768 ft | 484 kts | 336° |
| 2026-05-06 10:32 | 49.52094 | 9.07750 | 37764 ft | 485 kts | 335° |
| 2026-05-06 10:33 | 49.58352 | 9.04118 | 37757 ft | 485 kts | 336° |
| 2026-05-06 10:33 | 49.64630 | 9.00464 | 37758 ft | 487 kts | 336° |
| 2026-05-06 10:34 | 49.70932 | 8.96785 | 37755 ft | 486 kts | 336° |
| 2026-05-06 10:34 | 49.77198 | 8.93118 | 37761 ft | 486 kts | 336° |
| 2026-05-06 10:35 | 49.83413 | 8.89471 | 37764 ft | 486 kts | 336° |
| 2026-05-06 10:35 | 49.89697 | 8.85772 | 37768 ft | 486 kts | 336° |
| 2026-05-06 10:36 | 49.95869 | 8.82129 | 37769 ft | 484 kts | 336° |
| 2026-05-06 10:36 | 50.02187 | 8.78391 | 37770 ft | 485 kts | 336° |
| 2026-05-06 10:37 | 50.08441 | 8.74679 | 37771 ft | 485 kts | 336° |
| 2026-05-06 10:37 | 50.14696 | 8.70955 | 37773 ft | 485 kts | 336° |
| 2026-05-06 10:38 | 50.20948 | 8.67225 | 37769 ft | 486 kts | 336° |
| 2026-05-06 10:38 | 50.27211 | 8.63478 | 37767 ft | 486 kts | 336° |
| 2026-05-06 10:39 | 50.33482 | 8.59715 | 37764 ft | 485 kts | 336° |
| 2026-05-06 10:39 | 50.39719 | 8.55962 | 37759 ft | 484 kts | 336° |
| 2026-05-06 10:40 | 50.45941 | 8.52208 | 37759 ft | 484 kts | 336° |
| 2026-05-06 10:40 | 50.52163 | 8.48444 | 37760 ft | 484 kts | 336° |
| 2026-05-06 10:41 | 50.58389 | 8.44667 | 37759 ft | 484 kts | 336° |
| 2026-05-06 10:41 | 50.64647 | 8.40859 | 37759 ft | 484 kts | 336° |
| 2026-05-06 10:42 | 50.70830 | 8.37085 | 37761 ft | 484 kts | 336° |
| 2026-05-06 10:42 | 50.77063 | 8.33269 | 37760 ft | 484 kts | 336° |
| 2026-05-06 10:43 | 50.83299 | 8.29441 | 37760 ft | 483 kts | 336° |
| 2026-05-06 10:44 | 50.92647 | 8.23679 | 37755 ft | 484 kts | 336° |
| 2026-05-06 10:44 | 50.98852 | 8.19842 | 37746 ft | 483 kts | 336° |
| 2026-05-06 10:45 | 51.05008 | 8.16025 | 37748 ft | 483 kts | 336° |
| 2026-05-06 10:45 | 51.11190 | 8.12181 | 37745 ft | 483 kts | 336° |
| 2026-05-06 10:46 | 51.17407 | 8.08303 | 37748 ft | 483 kts | 336° |
| 2026-05-06 10:46 | 51.23616 | 8.04420 | 37754 ft | 483 kts | 336° |
| 2026-05-06 10:47 | 51.29808 | 8.00537 | 37753 ft | 483 kts | 336° |
| 2026-05-06 10:47 | 51.36032 | 7.96623 | 37763 ft | 483 kts | 336° |
| 2026-05-06 10:48 | 51.42274 | 7.92685 | 37777 ft | 482 kts | 336° |
| 2026-05-06 10:48 | 51.48464 | 7.88772 | 37783 ft | 482 kts | 336° |
| 2026-05-06 10:49 | 51.54802 | 7.85314 | 37793 ft | 483 kts | 341° |
| 2026-05-06 10:49 | 51.61182 | 7.82354 | 37794 ft | 483 kts | 342° |
| 2026-05-06 10:50 | 51.67498 | 7.79472 | 37798 ft | 483 kts | 342° |
| 2026-05-06 10:50 | 51.73837 | 7.76515 | 37803 ft | 483 kts | 342° |
| 2026-05-06 10:51 | 51.79795 | 7.73630 | 37813 ft | 481 kts | 339° |
| 2026-05-06 10:51 | 51.85699 | 7.69041 | 37817 ft | 462 kts | 321° |
| 2026-05-06 10:51 | 51.88070 | 7.65755 | 37621 ft | 450 kts | 312° |
| 2026-05-06 10:52 | 51.90179 | 7.62069 | 37237 ft | 446 kts | 309° |
| 2026-05-06 10:52 | 51.92139 | 7.58289 | 36729 ft | 447 kts | 307° |
| 2026-05-06 10:52 | 51.94082 | 7.54358 | 36145 ft | 450 kts | 306° |
| 2026-05-06 10:52 | 51.96014 | 7.50368 | 35504 ft | 455 kts | 306° |
| 2026-05-06 10:53 | 51.97931 | 7.46387 | 35007 ft | 453 kts | 307° |
| 2026-05-06 10:53 | 51.99820 | 7.42471 | 34689 ft | 448 kts | 307° |
| 2026-05-06 10:53 | 52.01545 | 7.38903 | 34191 ft | 449 kts | 307° |
| 2026-05-06 10:53 | 52.03463 | 7.34948 | 33583 ft | 450 kts | 307° |
| 2026-05-06 10:54 | 52.05351 | 7.31059 | 32852 ft | 453 kts | 307° |
| 2026-05-06 10:54 | 52.07319 | 7.27013 | 32051 ft | 456 kts | 308° |
| 2026-05-06 10:54 | 52.09266 | 7.23013 | 31243 ft | 458 kts | 308° |
| 2026-05-06 10:54 | 52.11248 | 7.18945 | 30388 ft | 460 kts | 309° |
| 2026-05-06 10:55 | 52.13210 | 7.14912 | 29554 ft | 460 kts | 309° |
| 2026-05-06 10:55 | 52.15131 | 7.10973 | 28800 ft | 458 kts | 309° |
| 2026-05-06 10:55 | 52.17099 | 7.06922 | 28208 ft | 452 kts | 308° |
| 2026-05-06 10:55 | 52.19027 | 7.02938 | 27595 ft | 447 kts | 308° |
| 2026-05-06 10:56 | 52.20932 | 6.98992 | 27054 ft | 441 kts | 308° |
| 2026-05-06 10:56 | 52.22803 | 6.95129 | 26474 ft | 436 kts | 309° |
| 2026-05-06 10:56 | 52.24701 | 6.91291 | 26195 ft | 431 kts | 309° |
| 2026-05-06 10:56 | 52.26574 | 6.87546 | 25900 ft | 432 kts | 310° |
| 2026-05-06 10:57 | 52.28474 | 6.83763 | 25491 ft | 424 kts | 309° |
| 2026-05-06 10:57 | 52.30328 | 6.80075 | 24982 ft | 419 kts | 309° |
| 2026-05-06 10:57 | 52.32150 | 6.76444 | 24461 ft | 421 kts | 309° |
| 2026-05-06 10:57 | 52.34005 | 6.72737 | 23893 ft | 419 kts | 308° |
| 2026-05-06 10:58 | 52.35824 | 6.69085 | 23351 ft | 413 kts | 309° |
| 2026-05-06 10:58 | 52.37600 | 6.65512 | 22814 ft | 408 kts | 309° |
| 2026-05-06 10:58 | 52.39379 | 6.61921 | 22268 ft | 404 kts | 308° |
| 2026-05-06 10:58 | 52.41122 | 6.58397 | 21728 ft | 399 kts | 308° |
| 2026-05-06 10:59 | 52.42860 | 6.54880 | 21196 ft | 400 kts | 308° |
| 2026-05-06 10:59 | 52.44526 | 6.51226 | 20643 ft | 403 kts | 303° |
| 2026-05-06 10:59 | 52.45884 | 6.47291 | 20090 ft | 398 kts | 294° |
| 2026-05-06 10:59 | 52.46783 | 6.43049 | 19540 ft | 392 kts | 283° |
| 2026-05-06 11:00 | 52.47271 | 6.38719 | 18991 ft | 387 kts | 277° |
| 2026-05-06 11:00 | 52.47570 | 6.34371 | 18430 ft | 383 kts | 274° |
| 2026-05-06 11:00 | 52.47790 | 6.30048 | 17882 ft | 379 kts | 274° |
| 2026-05-06 11:00 | 52.47979 | 6.25772 | 17335 ft | 375 kts | 274° |
| 2026-05-06 11:01 | 52.48156 | 6.21596 | 16795 ft | 372 kts | 274° |
| 2026-05-06 11:01 | 52.48339 | 6.17390 | 16245 ft | 369 kts | 274° |
| 2026-05-06 11:01 | 52.48528 | 6.13202 | 15686 ft | 365 kts | 275° |
| 2026-05-06 11:01 | 52.48718 | 6.09083 | 15135 ft | 362 kts | 275° |
| 2026-05-06 11:02 | 52.48907 | 6.05020 | 14597 ft | 359 kts | 275° |
| 2026-05-06 11:02 | 52.49099 | 6.00983 | 14054 ft | 356 kts | 275° |
| 2026-05-06 11:02 | 52.49287 | 5.96998 | 13506 ft | 353 kts | 275° |
| 2026-05-06 11:02 | 52.49479 | 5.92967 | 12970 ft | 352 kts | 275° |
| 2026-05-06 11:03 | 52.49666 | 5.88987 | 12423 ft | 357 kts | 275° |
| 2026-05-06 11:03 | 52.49854 | 5.84942 | 11859 ft | 355 kts | 275° |
| 2026-05-06 11:03 | 52.50037 | 5.80952 | 11317 ft | 352 kts | 275° |
| 2026-05-06 11:03 | 52.50218 | 5.76964 | 10774 ft | 349 kts | 275° |
| 2026-05-06 11:04 | 52.50391 | 5.73094 | 10594 ft | 334 kts | 275° |
| 2026-05-06 11:04 | 52.50557 | 5.69341 | 10467 ft | 320 kts | 275° |
| 2026-05-06 11:04 | 52.50711 | 5.65831 | 10368 ft | 307 kts | 275° |
| 2026-05-06 11:04 | 52.50863 | 5.62398 | 10268 ft | 294 kts | 276° |
| 2026-05-06 11:05 | 52.50979 | 5.59137 | 10144 ft | 284 kts | 272° |
| 2026-05-06 11:05 | 52.50760 | 5.55918 | 9847 ft | 282 kts | 253° |
| 2026-05-06 11:05 | 52.49921 | 5.53053 | 9527 ft | 281 kts | 239° |
| 2026-05-06 11:05 | 52.48847 | 5.50351 | 9148 ft | 282 kts | 237° |
| 2026-05-06 11:06 | 52.47777 | 5.47710 | 8783 ft | 281 kts | 238° |
| 2026-05-06 11:06 | 52.46727 | 5.45015 | 8302 ft | 280 kts | 239° |
| 2026-05-06 11:06 | 52.45713 | 5.42322 | 7812 ft | 279 kts | 240° |
| 2026-05-06 11:06 | 52.44710 | 5.39607 | 7323 ft | 278 kts | 240° |
| 2026-05-06 11:07 | 52.43716 | 5.36914 | 6865 ft | 277 kts | 240° |
| 2026-05-06 11:07 | 52.42726 | 5.34227 | 6365 ft | 276 kts | 239° |
| 2026-05-06 11:07 | 52.41741 | 5.31550 | 5890 ft | 276 kts | 239° |
| 2026-05-06 11:07 | 52.40765 | 5.28912 | 5590 ft | 268 kts | 239° |
| 2026-05-06 11:08 | 52.39821 | 5.26371 | 5466 ft | 254 kts | 239° |
| 2026-05-06 11:08 | 52.38932 | 5.23983 | 5379 ft | 238 kts | 240° |
| 2026-05-06 11:08 | 52.38090 | 5.21722 | 5231 ft | 231 kts | 240° |
| 2026-05-06 11:08 | 52.37254 | 5.19473 | 4983 ft | 230 kts | 240° |
| 2026-05-06 11:09 | 52.36426 | 5.17242 | 4702 ft | 230 kts | 240° |
| 2026-05-06 11:09 | 52.35605 | 5.15032 | 4467 ft | 230 kts | 240° |
| 2026-05-06 11:09 | 52.34785 | 5.12837 | 4343 ft | 223 kts | 240° |
| 2026-05-06 11:09 | 52.33987 | 5.10706 | 4246 ft | 215 kts | 240° |
| 2026-05-06 11:10 | 52.33222 | 5.08654 | 4139 ft | 209 kts | 240° |
| 2026-05-06 11:10 | 52.32488 | 5.06626 | 3942 ft | 208 kts | 242° |
| 2026-05-06 11:10 | 52.31786 | 5.04585 | 3739 ft | 207 kts | 242° |
| 2026-05-06 11:10 | 52.31024 | 5.02599 | 3536 ft | 206 kts | 238° |
| 2026-05-06 11:11 | 52.30217 | 5.00644 | 3316 ft | 207 kts | 237° |
| 2026-05-06 11:11 | 52.29429 | 4.98735 | 3173 ft | 201 kts | 237° |
| 2026-05-06 11:11 | 52.28656 | 4.96861 | 3007 ft | 198 kts | 238° |
| 2026-05-06 11:11 | 52.27885 | 4.94991 | 2797 ft | 198 kts | 238° |
| 2026-05-06 11:12 | 52.27121 | 4.93142 | 2663 ft | 192 kts | 238° |
| 2026-05-06 11:12 | 52.26387 | 4.91380 | 2527 ft | 186 kts | 238° |
| 2026-05-06 11:12 | 52.25658 | 4.89634 | 2318 ft | 185 kts | 238° |
| 2026-05-06 11:12 | 52.24932 | 4.87900 | 2099 ft | 186 kts | 238° |
| 2026-05-06 11:13 | 52.24212 | 4.86188 | 1973 ft | 182 kts | 238° |
| 2026-05-06 11:13 | 52.23495 | 4.84491 | 1990 ft | 184 kts | 238° |
| 2026-05-06 11:13 | 52.22767 | 4.82773 | 1986 ft | 184 kts | 238° |
| 2026-05-06 11:13 | 52.22044 | 4.81069 | 1987 ft | 184 kts | 238° |
| 2026-05-06 11:14 | 52.21316 | 4.79354 | 1988 ft | 184 kts | 238° |
| 2026-05-06 11:14 | 52.20580 | 4.77618 | 1990 ft | 185 kts | 238° |
| 2026-05-06 11:14 | 52.19849 | 4.75895 | 1988 ft | 184 kts | 238° |
| 2026-05-06 11:14 | 52.19126 | 4.74184 | 1983 ft | 185 kts | 238° |
| 2026-05-06 11:15 | 52.18398 | 4.72459 | 1982 ft | 185 kts | 238° |
| 2026-05-06 11:15 | 52.17670 | 4.70736 | 1983 ft | 185 kts | 238° |
| 2026-05-06 11:15 | 52.16944 | 4.69024 | 1979 ft | 184 kts | 238° |
| 2026-05-06 11:15 | 52.16215 | 4.67318 | 1976 ft | 183 kts | 238° |
| 2026-05-06 11:16 | 52.15483 | 4.65616 | 1976 ft | 183 kts | 238° |
| 2026-05-06 11:16 | 52.14756 | 4.63936 | 1979 ft | 184 kts | 238° |
| 2026-05-06 11:16 | 52.14047 | 4.62220 | 1976 ft | 182 kts | 248° |
| 2026-05-06 11:16 | 52.13845 | 4.60267 | 1980 ft | 173 kts | 289° |
| 2026-05-06 11:17 | 52.14409 | 4.58669 | 1985 ft | 161 kts | 322° |
| 2026-05-06 11:17 | 52.15225 | 4.57411 | 1980 ft | 160 kts | 323° |
| 2026-05-06 11:17 | 52.16018 | 4.56174 | 1986 ft | 154 kts | 323° |
| 2026-05-06 11:17 | 52.16766 | 4.54983 | 1978 ft | 151 kts | 323° |
| 2026-05-06 11:18 | 52.17516 | 4.53778 | 1983 ft | 152 kts | 323° |
| 2026-05-06 11:18 | 52.18268 | 4.52560 | 1984 ft | 151 kts | 323° |
| 2026-05-06 11:18 | 52.19042 | 4.51452 | 1980 ft | 146 kts | 340° |
| 2026-05-06 11:18 | 52.19986 | 4.51326 | 1989 ft | 137 kts | 25° |
| 2026-05-06 11:19 | 52.20642 | 4.52399 | 1995 ft | 138 kts | 57° |
| 2026-05-06 11:19 | 52.21141 | 4.53734 | 1985 ft | 137 kts | 54° |
| 2026-05-06 11:19 | 52.21663 | 4.55018 | 1988 ft | 137 kts | 54° |
| 2026-05-06 11:19 | 52.22177 | 4.56334 | 1990 ft | 137 kts | 55° |
| 2026-05-06 11:20 | 52.22687 | 4.57650 | 1990 ft | 137 kts | 55° |
| 2026-05-06 11:20 | 52.23195 | 4.58956 | 1994 ft | 136 kts | 55° |
| 2026-05-06 11:20 | 52.23702 | 4.60261 | 1945 ft | 136 kts | 56° |
| 2026-05-06 11:20 | 52.24201 | 4.61548 | 1766 ft | 136 kts | 55° |
| 2026-05-06 11:21 | 52.24708 | 4.62859 | 1579 ft | 136 kts | 55° |
| 2026-05-06 11:21 | 52.25209 | 4.64149 | 1395 ft | 138 kts | 56° |
| 2026-05-06 11:21 | 52.25721 | 4.65464 | 1210 ft | 138 kts | 54° |
| 2026-05-06 11:21 | 52.26211 | 4.66752 | 1048 ft | 128 kts | 56° |
| 2026-05-06 11:22 | 52.26691 | 4.67995 | 844 ft | 130 kts | 52° |
| 2026-05-06 11:22 | 52.27188 | 4.69202 | 671 ft | 128 kts | 58° |
| 2026-05-06 11:22 | 52.27644 | 4.70455 | 511 ft | 136 kts | 54° |
| 2026-05-06 11:22 | 52.28135 | 4.71815 | 257 ft | 145 kts | 52° |
| 2026-05-06 11:23 | 52.28692 | 4.73138 | 71 ft | 136 kts | 58° |
| 2026-05-06 11:23 | 52.29150 | 4.74329 | -2 ft | 104 kts | 58° |
| 2026-05-06 11:23 | 52.29398 | 4.74991 | -2 ft | 38 kts | 58° |
| 2026-05-06 11:23 | 52.29509 | 4.75279 | -2 ft | 29 kts | 58° |
| 2026-05-06 11:24 | 52.29612 | 4.75556 | -2 ft | 27 kts | 56° |
| 2026-05-06 11:24 | 52.29716 | 4.75739 | -2 ft | 16 kts | 35° |
| 2026-05-06 11:24 | 52.29804 | 4.75820 | -2 ft | 4 kts | 28° |
| 2026-05-06 11:24 | 52.29832 | 4.75844 | -2 ft | 4 kts | 27° |
| 2026-05-06 11:25 | 52.29862 | 4.75869 | -2 ft | 4 kts | 27° |
| 2026-05-06 11:25 | 52.29894 | 4.75895 | -2 ft | 5 kts | 27° |
| 2026-05-06 11:25 | 52.29927 | 4.75923 | -2 ft | 5 kts | 27° |
| 2026-05-06 11:25 | 52.29962 | 4.75951 | -2 ft | 5 kts | 27° |
| 2026-05-06 11:26 | 52.30004 | 4.75950 | -2 ft | 7 kts | 341° |
| 2026-05-06 11:26 | 52.30042 | 4.75891 | -2 ft | 9 kts | 266° |
| 2026-05-06 11:26 | 52.30012 | 4.75783 | -2 ft | 11 kts | 239° |
| 2026-05-06 11:26 | 52.29966 | 4.75665 | -2 ft | 12 kts | 237° |
| 2026-05-06 11:27 | 52.29919 | 4.75548 | -2 ft | 12 kts | 237° |
| 2026-05-06 11:27 | 52.29875 | 4.75429 | -2 ft | 12 kts | 240° |
| 2026-05-06 11:27 | 52.29816 | 4.75326 | -2 ft | 12 kts | 215° |
| 2026-05-06 11:27 | 52.29744 | 4.75252 | -2 ft | 12 kts | 211° |
| 2026-05-06 11:28 | 52.29710 | 4.75160 | -2 ft | 7 kts | 244° |
| 2026-05-06 11:28 | 52.29686 | 4.75091 | -2 ft | 7 kts | 237° |
| 2026-05-06 11:28 | 52.29676 | 4.75065 | -2 ft | 2 kts | 237° |
| 2026-05-06 11:28 | 52.29666 | 4.75040 | -2 ft | 3 kts | 237° |
| 2026-05-06 11:29 | 52.29652 | 4.75007 | -2 ft | 3 kts | 237° |
| 2026-05-06 11:29 | 52.29645 | 4.74976 | -2 ft | 1 kts | 302° |
| 2026-05-06 11:29 | 52.29656 | 4.74995 | -2 ft | 4 kts | 72° |
| 2026-05-06 11:29 | 52.29674 | 4.75063 | -2 ft | 10 kts | 60° |
| 2026-05-06 11:30 | 52.29724 | 4.75190 | -2 ft | 15 kts | 56° |
| 2026-05-06 11:30 | 52.29811 | 4.75249 | -2 ft | 16 kts | 324° |
| 2026-05-06 11:30 | 52.29891 | 4.75100 | -2 ft | 18 kts | 311° |
| 2026-05-06 11:30 | 52.29981 | 4.74933 | -2 ft | 20 kts | 312° |
| 2026-05-06 11:31 | 52.30082 | 4.74748 | -2 ft | 22 kts | 310° |
| 2026-05-06 11:31 | 52.30192 | 4.74542 | -2 ft | 24 kts | 309° |
| 2026-05-06 11:31 | 52.30305 | 4.74333 | -2 ft | 24 kts | 311° |
| 2026-05-06 11:31 | 52.30436 | 4.74194 | -2 ft | 23 kts | 358° |
| 2026-05-06 11:32 | 52.30598 | 4.74205 | -2 ft | 23 kts | 4° |
| 2026-05-06 11:32 | 52.30762 | 4.74221 | -2 ft | 23 kts | 2° |
| 2026-05-06 11:32 | 52.30925 | 4.74234 | -2 ft | 23 kts | 4° |
| 2026-05-06 11:32 | 52.31087 | 4.74250 | -2 ft | 23 kts | 3° |
| 2026-05-06 11:33 | 52.31249 | 4.74263 | -2 ft | 22 kts | 2° |
| 2026-05-06 11:33 | 52.31360 | 4.74285 | -2 ft | 14 kts | 29° |
| 2026-05-06 11:33 | 52.31393 | 4.74430 | -2 ft | 14 kts | 95° |
| 2026-05-06 11:33 | 52.31386 | 4.74581 | -2 ft | 13 kts | 78° |
| 2026-05-06 11:34 | 52.31404 | 4.74730 | -2 ft | 13 kts | 85° |
| 2026-05-06 11:34 | 52.31410 | 4.74884 | -2 ft | 14 kts | 87° |
| 2026-05-06 11:34 | 52.31416 | 4.75061 | -2 ft | 16 kts | 87° |
| 2026-05-06 11:34 | 52.31422 | 4.75261 | -2 ft | 18 kts | 85° |
| 2026-05-06 11:35 | 52.31398 | 4.75438 | -2 ft | 16 kts | 160° |
| 2026-05-06 11:35 | 52.31321 | 4.75452 | -2 ft | 10 kts | 176° |
| 2026-05-06 11:35 | 52.31247 | 4.75458 | -2 ft | 10 kts | 177° |
| 2026-05-06 11:35 | 52.31172 | 4.75468 | -2 ft | 10 kts | 174° |
| 2026-05-06 11:36 | 52.31105 | 4.75469 | -2 ft | 9 kts | 201° |
| 2026-05-06 11:36 | 52.31061 | 4.75389 | -2 ft | 9 kts | 237° |
| 2026-05-06 11:36 | 52.31026 | 4.75294 | -2 ft | 8 kts | 240° |
| 2026-05-06 11:36 | 52.30986 | 4.75278 | -2 ft | 5 kts | 150° |
| 2026-05-06 11:37 | 52.30970 | 4.75293 | -2 ft | 1 kts | 149° |